createdAt,value
2022-11-11T17:11:59.556Z,101616.00
2022-11-11T17:14:44.810Z,101621.19
2022-11-11T17:17:31.036Z,101623.66
2022-11-11T17:20:20.820Z,101613.59
2022-11-11T17:23:09.584Z,101634.19
2022-11-11T17:25:57.268Z,101618.00
2022-11-11T17:28:42.930Z,101611.75
2022-11-11T17:31:28.598Z,101619.09
2022-11-11T17:34:14.436Z,101627.31
2022-11-11T17:37:00.369Z,101614.19
2022-11-11T17:39:46.821Z,101602.53
2022-11-11T17:42:33.656Z,101627.66
2022-11-11T17:45:20.133Z,101610.31
2022-11-11T17:48:06.747Z,101584.16
2022-11-11T17:50:52.223Z,101613.94
2022-11-11T17:53:38.068Z,101620.56
2022-11-11T17:56:27.232Z,101623.97
2022-11-11T17:59:13.381Z,101627.00
2022-11-11T18:01:59.829Z,101633.16
2022-11-11T18:04:46.293Z,101635.44
2022-11-11T18:07:32.395Z,101634.88
2022-11-11T18:10:17.952Z,101632.84
2022-11-11T18:13:04.335Z,101627.25
2022-11-11T18:15:50.026Z,101613.34
2022-11-11T18:18:38.694Z,101635.53
2022-11-11T18:21:24.226Z,101614.81
2022-11-11T18:24:11.294Z,101617.53
2022-11-11T18:26:57.362Z,101620.63
2022-11-11T18:29:43.956Z,101618.50
2022-11-11T18:32:29.769Z,101614.78
2022-11-11T18:35:15.679Z,101620.38
2022-11-11T18:38:02.028Z,101605.50
2022-11-11T18:40:48.064Z,101617.34
2022-11-11T18:43:48.966Z,101620.38
2022-11-11T18:46:35.819Z,101622.47
2022-11-11T18:49:21.896Z,101617.00
2022-11-11T18:52:08.089Z,101630.53
2022-11-11T18:54:54.278Z,101631.63
2022-11-11T18:57:40.317Z,101627.31
2022-11-11T19:00:26.132Z,101630.84
2022-11-11T19:03:16.386Z,101608.72
2022-11-11T19:06:04.004Z,101634.19
2022-11-11T19:09:10.677Z,101629.31
2022-11-11T19:11:56.292Z,101616.91
2022-11-11T19:14:41.847Z,101613.69
2022-11-11T19:17:27.224Z,101582.09
2022-11-11T19:20:12.929Z,101571.94
2022-11-11T19:22:59.229Z,101610.78
2022-11-11T19:25:45.010Z,101624.75
2022-11-11T19:28:33.371Z,101634.63
2022-11-11T19:31:21.292Z,101629.66
2022-11-11T19:34:06.788Z,101627.44
2022-11-11T19:36:52.683Z,101627.44
2022-11-11T19:39:39.490Z,101626.59
2022-11-11T19:42:25.498Z,101639.59
2022-11-11T19:45:11.295Z,101633.16
2022-11-11T19:47:57.007Z,101642.28
2022-11-11T19:50:43.318Z,101636.59
2022-11-11T19:53:29.594Z,101634.03
2022-11-11T19:56:18.937Z,101629.81
2022-11-11T19:59:04.575Z,101620.31
2022-11-11T20:01:52.822Z,101630.69
2022-11-11T20:04:39.365Z,101630.56
2022-11-11T20:07:25.560Z,101628.06
2022-11-11T20:10:11.434Z,101622.03
2022-11-11T20:12:57.591Z,101640.00
2022-11-11T20:15:43.687Z,101637.53
2022-11-11T20:18:31.433Z,101633.53
2022-11-11T20:21:17.128Z,101637.84
2022-11-11T20:24:03.207Z,101649.75
2022-11-11T20:26:52.370Z,101648.81
2022-11-11T20:29:39.608Z,101655.38
2022-11-11T20:32:25.972Z,101652.44
2022-11-11T20:35:12.035Z,101626.97
2022-11-11T20:37:59.485Z,101643.88
2022-11-11T20:40:45.119Z,101643.88
2022-11-11T20:43:32.760Z,101620.63
2022-11-11T20:46:21.159Z,101620.88
2022-11-11T20:49:07.585Z,101631.06
2022-11-11T20:51:53.380Z,101623.66
2022-11-11T20:54:39.894Z,101634.06
2022-11-11T20:57:25.791Z,101632.00
2022-11-11T21:00:14.195Z,101622.13
2022-11-11T21:03:00.211Z,101637.94
2022-11-11T21:05:45.798Z,101638.56
2022-11-11T21:08:33.016Z,101631.78
2022-11-11T21:11:21.485Z,101634.06
2022-11-11T21:14:08.762Z,101628.69
2022-11-11T21:16:54.859Z,101633.44
2022-11-11T21:19:40.912Z,101634.69
2022-11-11T21:22:26.512Z,101622.28
2022-11-11T21:25:12.497Z,101609.09
2022-11-11T21:27:57.903Z,101618.97
2022-11-11T21:30:43.215Z,101622.06
2022-11-11T21:33:28.907Z,101625.31
2022-11-11T21:36:15.259Z,101628.09
2022-11-11T21:39:05.240Z,101622.28
2022-11-11T21:41:51.971Z,101621.72
2022-11-11T21:44:37.818Z,101623.13
2022-11-11T21:47:23.586Z,101620.75
2022-11-11T21:50:09.540Z,101623.97
2022-11-11T21:52:55.088Z,101626.97
2022-11-11T21:55:40.654Z,101623.53
2022-11-11T21:58:26.549Z,101612.06
2022-11-11T22:01:19.271Z,101583.78
2022-11-11T22:04:08.191Z,101595.38
2022-11-11T22:06:53.541Z,101616.47
2022-11-11T22:09:38.994Z,101606.56
2022-11-11T22:12:24.286Z,101581.50
2022-11-11T22:15:09.968Z,101604.66
2022-11-11T22:17:56.298Z,101598.69
2022-11-11T22:20:41.621Z,101583.81
2022-11-11T22:23:27.286Z,101596.69
2022-11-11T22:26:13.028Z,101567.69
2022-11-11T22:28:58.826Z,101583.19
2022-11-11T22:31:44.864Z,101587.06
2022-11-11T22:34:30.469Z,101582.97
2022-11-11T22:37:15.878Z,101582.22
2022-11-11T22:40:01.173Z,101575.03
2022-11-11T22:42:46.708Z,101564.53
2022-11-11T22:45:32.279Z,101574.50
2022-11-11T22:48:17.542Z,101569.25
2022-11-11T22:51:09.496Z,101572.94
2022-11-11T22:53:57.538Z,101570.50
2022-11-11T22:56:43.336Z,101555.59
2022-11-11T22:59:28.923Z,101563.31
2022-11-11T23:02:14.580Z,101545.28
2022-11-11T23:04:59.778Z,101562.31
2022-11-11T23:07:45.280Z,101567.19
2022-11-11T23:10:31.780Z,101578.59
2022-11-11T23:13:17.032Z,101577.22
2022-11-11T23:16:03.118Z,101573.88
2022-11-11T23:18:48.997Z,101578.78
2022-11-11T23:21:35.547Z,101573.53
2022-11-11T23:24:20.982Z,101570.09
2022-11-11T23:27:06.205Z,101575.56
2022-11-11T23:29:52.754Z,101570.69
2022-11-11T23:32:38.459Z,101568.69
2022-11-11T23:35:23.847Z,101532.16
2022-11-11T23:38:09.298Z,101578.22
2022-11-11T23:40:54.927Z,101568.75
2022-11-11T23:43:40.986Z,101568.09
2022-11-11T23:46:26.481Z,101573.47
2022-11-11T23:49:11.814Z,101573.56
2022-11-11T23:51:57.170Z,101574.00
2022-11-11T23:54:42.560Z,101566.19
2022-11-11T23:57:28.015Z,101578.34
